createdAt,value
2022-10-10T00:02:15.432Z,8.39
2022-10-10T00:07:16.669Z,8.31
2022-10-10T00:12:17.906Z,8.24
2022-10-10T00:17:19.155Z,8.27
2022-10-10T00:22:20.789Z,8.25
2022-10-10T00:27:22.088Z,8.25
2022-10-10T00:32:23.475Z,8.20
2022-10-10T00:37:24.786Z,8.21
2022-10-10T00:42:26.037Z,8.15
2022-10-10T00:47:27.281Z,8.17
2022-10-10T00:52:28.546Z,8.17
2022-10-10T00:57:29.845Z,8.19
2022-10-10T01:02:31.347Z,8.18
2022-10-10T01:07:33.403Z,8.15
2022-10-10T01:12:37.388Z,8.19
2022-10-10T01:17:44.085Z,8.23
2022-10-10T01:23:00.320Z,8.26
2022-10-10T01:28:02.947Z,8.28
2022-10-10T01:33:04.211Z,8.27
2022-10-10T01:38:12.630Z,8.28
2022-10-10T01:43:13.970Z,8.31
2022-10-10T01:48:17.116Z,8.34
2022-10-10T01:53:30.928Z,8.36
2022-10-10T01:58:32.175Z,8.40
2022-10-10T02:03:37.726Z,8.40
2022-10-10T02:08:51.373Z,8.42
2022-10-10T02:13:55.747Z,8.44
2022-10-10T02:18:59.750Z,8.51
2022-10-10T02:24:02.315Z,8.52
2022-10-10T02:29:09.202Z,8.58
2022-10-10T02:34:13.286Z,8.61
2022-10-10T02:39:16.733Z,8.62
2022-10-10T02:44:19.005Z,8.61
2022-10-10T02:49:24.472Z,8.63
2022-10-10T02:54:25.768Z,8.69
2022-10-10T02:59:27.026Z,8.77
2022-10-10T03:04:28.803Z,8.73
2022-10-10T03:09:30.095Z,8.75
2022-10-10T03:14:31.379Z,8.69
2022-10-10T03:19:32.626Z,8.73
2022-10-10T03:24:33.873Z,8.72
2022-10-10T03:29:35.514Z,8.68
2022-10-10T03:34:36.744Z,8.63
2022-10-10T03:39:38.058Z,8.63
2022-10-10T03:44:39.298Z,8.62
2022-10-10T03:49:40.546Z,8.60
2022-10-10T03:54:41.806Z,8.61
2022-10-10T03:59:43.045Z,8.64
2022-10-10T04:04:44.292Z,8.68
2022-10-10T04:09:45.545Z,8.74
2022-10-10T04:14:46.781Z,8.74
2022-10-10T04:19:48.020Z,8.92
2022-10-10T04:24:49.297Z,8.89
2022-10-10T04:29:50.534Z,8.81
2022-10-10T04:34:51.860Z,8.82
2022-10-10T04:39:53.163Z,8.88
2022-10-10T05:00:21.605Z,9.08
2022-10-10T05:05:22.945Z,9.01
2022-10-10T05:10:25.075Z,9.07
2022-10-10T05:15:26.981Z,9.10
2022-10-10T05:20:28.252Z,9.11
2022-10-10T05:25:29.480Z,9.12
2022-10-10T05:30:30.780Z,9.19
2022-10-10T05:35:32.036Z,9.24
2022-10-10T05:40:33.263Z,9.20
2022-10-10T05:45:34.507Z,9.30
2022-10-10T05:50:40.333Z,9.33
2022-10-10T05:55:41.607Z,9.26
2022-10-10T06:00:43.540Z,9.27
2022-10-10T06:05:46.000Z,9.31
2022-10-10T06:10:47.767Z,9.39
2022-10-10T06:15:51.018Z,9.34
2022-10-10T06:20:52.599Z,9.48
2022-10-10T06:25:53.895Z,9.39
2022-10-10T06:30:58.765Z,9.48
2022-10-10T06:36:04.836Z,9.54
2022-10-10T06:41:07.386Z,9.64
2022-10-10T06:46:09.565Z,9.72
2022-10-10T06:51:14.119Z,9.84
2022-10-10T06:56:26.368Z,9.97
2022-10-10T07:01:29.073Z,10.22
2022-10-10T07:06:34.576Z,10.01
2022-10-10T07:11:36.152Z,10.48
2022-10-10T07:16:37.407Z,10.61
2022-10-10T07:21:38.696Z,10.77
2022-10-10T07:26:39.959Z,11.00
2022-10-10T07:31:41.282Z,10.94
2022-10-10T07:36:43.384Z,11.16
2022-10-10T07:41:44.629Z,11.14
2022-10-10T07:46:46.407Z,11.33
2022-10-10T07:51:47.633Z,11.39
2022-10-10T07:56:48.857Z,11.38
2022-10-10T08:01:50.625Z,11.38
2022-10-10T08:06:51.897Z,11.49
2022-10-10T08:11:53.141Z,11.61
2022-10-10T08:16:54.440Z,11.79
2022-10-10T08:21:56.446Z,11.82
2022-10-10T08:26:57.977Z,11.91
2022-10-10T08:31:59.200Z,12.17
2022-10-10T08:37:00.447Z,12.42
2022-10-10T08:42:02.351Z,12.46
2022-10-10T08:47:05.803Z,12.66
2022-10-10T08:52:25.736Z,12.68
2022-10-10T08:57:47.903Z,12.72
2022-10-10T09:02:55.009Z,12.78
2022-10-10T09:08:16.501Z,12.97
2022-10-10T09:13:30.940Z,13.15
2022-10-10T09:18:39.056Z,13.32
2022-10-10T09:23:42.867Z,13.30
2022-10-10T09:28:48.716Z,13.32
2022-10-10T09:33:59.072Z,13.44
2022-10-10T09:39:02.592Z,13.34
2022-10-10T09:44:05.619Z,13.71
2022-10-10T09:49:07.097Z,13.85
2022-10-10T09:54:08.331Z,14.19
2022-10-10T09:59:29.528Z,13.94
2022-10-10T10:04:33.754Z,14.25
2022-10-10T10:09:35.058Z,14.45
2022-10-10T10:14:37.568Z,14.75
2022-10-10T10:19:43.653Z,14.42
2022-10-10T10:24:44.886Z,14.76
2022-10-10T10:29:47.316Z,14.79
2022-10-10T10:34:48.549Z,14.70
2022-10-10T10:40:08.666Z,15.09
2022-10-10T10:45:15.515Z,15.47
2022-10-10T10:50:35.774Z,15.49
2022-10-10T10:55:39.826Z,15.80
2022-10-10T11:01:24.259Z,15.28
2022-10-10T11:06:22.533Z,15.58
2022-10-10T11:11:46.566Z,15.63
2022-10-10T11:16:53.557Z,16.11
2022-10-10T11:21:59.019Z,16.18
2022-10-10T11:27:04.471Z,15.83
2022-10-10T11:32:11.111Z,16.02
2022-10-10T11:37:16.096Z,16.28
2022-10-10T11:42:26.543Z,16.41
2022-10-10T11:47:27.761Z,16.30
2022-10-10T11:52:47.837Z,16.29
2022-10-10T11:57:59.232Z,16.60
2022-10-10T12:03:00.488Z,16.66
2022-10-10T12:08:17.669Z,16.93
2022-10-10T12:13:34.118Z,17.13
2022-10-10T12:18:39.954Z,16.96
2022-10-10T12:23:43.166Z,16.77
2022-10-10T12:29:03.328Z,17.00
2022-10-10T12:34:08.039Z,17.10
2022-10-10T12:39:10.700Z,17.20
2022-10-10T12:44:14.703Z,16.95
2022-10-10T12:49:18.360Z,17.21
2022-10-10T12:54:24.492Z,17.13
2022-10-10T12:59:25.949Z,17.02
2022-10-10T13:04:28.322Z,17.03
2022-10-10T13:09:35.759Z,17.30
2022-10-10T13:14:44.701Z,17.24
2022-10-10T13:19:45.950Z,17.13
2022-10-10T13:24:47.873Z,17.13
2022-10-10T13:29:49.739Z,17.27
2022-10-10T13:34:56.883Z,17.18
2022-10-10T13:39:58.156Z,17.28
2022-10-10T13:45:00.419Z,17.34
2022-10-10T13:50:01.703Z,17.29
2022-10-10T13:55:23.797Z,17.21
2022-10-10T14:00:25.097Z,17.23
2022-10-10T14:05:29.094Z,17.23
2022-10-10T14:10:35.863Z,17.27
2022-10-10T14:15:43.075Z,17.34
2022-10-10T14:20:45.031Z,17.30
2022-10-10T14:25:48.143Z,17.30
2022-10-10T14:30:49.414Z,17.35
2022-10-10T14:35:51.773Z,17.37
2022-10-10T14:40:53.604Z,17.33
2022-10-10T14:45:54.961Z,17.36
2022-10-10T14:50:56.560Z,17.36
2022-10-10T14:55:57.872Z,17.39
2022-10-10T15:00:59.436Z,17.32
2022-10-10T15:06:01.003Z,17.28
2022-10-10T15:11:02.471Z,17.27
2022-10-10T15:16:03.968Z,17.22
2022-10-10T15:21:09.424Z,17.16
2022-10-10T15:26:10.928Z,17.16
2022-10-10T15:31:12.166Z,17.17
2022-10-10T15:36:18.292Z,17.15
2022-10-10T15:41:20.982Z,17.10
2022-10-10T15:46:23.393Z,17.08
2022-10-10T15:51:24.861Z,17.04
2022-10-10T15:56:26.131Z,16.99
2022-10-10T16:01:27.959Z,16.94
2022-10-10T16:06:29.533Z,16.91
2022-10-10T16:11:30.916Z,16.81
2022-10-10T16:16:33.022Z,16.70
2022-10-10T16:21:34.272Z,16.63
2022-10-10T16:26:37.322Z,16.51
2022-10-10T16:31:39.282Z,16.33
2022-10-10T16:36:40.505Z,16.33
2022-10-10T16:41:49.464Z,16.28
2022-10-10T16:46:51.146Z,16.14
2022-10-10T16:51:52.451Z,16.07
2022-10-10T16:56:53.730Z,15.97
2022-10-10T17:01:55.072Z,15.92
2022-10-10T17:06:56.315Z,15.64
2022-10-10T17:11:57.560Z,15.31
2022-10-10T17:17:11.520Z,15.33
2022-10-10T17:22:13.625Z,15.14
2022-10-10T17:27:14.874Z,14.90
2022-10-10T17:32:16.682Z,14.67
2022-10-10T17:37:17.909Z,14.69
2022-10-10T17:42:19.265Z,14.74
2022-10-10T17:47:20.561Z,14.53
2022-10-10T17:52:21.807Z,14.51
2022-10-10T17:57:23.086Z,14.60
2022-10-10T18:02:24.415Z,14.51
2022-10-10T18:07:25.695Z,14.38
2022-10-10T18:12:26.975Z,14.27
2022-10-10T18:17:28.217Z,14.20
2022-10-10T18:22:29.477Z,14.27
2022-10-10T18:27:30.790Z,14.15
2022-10-10T18:32:32.171Z,14.13
2022-10-10T18:37:34.892Z,14.06
2022-10-10T18:42:36.150Z,13.96
2022-10-10T18:47:37.423Z,13.85
2022-10-10T18:52:38.729Z,13.63
2022-10-10T18:57:40.080Z,13.62
2022-10-10T19:02:41.326Z,13.47
2022-10-10T19:07:42.621Z,13.29
2022-10-10T19:12:47.272Z,13.17
2022-10-10T19:17:48.685Z,13.10
2022-10-10T19:22:49.911Z,12.88
2022-10-10T19:27:51.182Z,12.75
2022-10-10T19:32:52.430Z,12.62
2022-10-10T19:37:53.685Z,12.28
2022-10-10T19:42:54.976Z,12.17
2022-10-10T19:47:56.312Z,12.05
2022-10-10T19:52:58.193Z,12.03
2022-10-10T19:58:01.326Z,11.83
2022-10-10T20:03:02.559Z,11.69
2022-10-10T20:08:03.877Z,11.45
2022-10-10T20:13:05.136Z,11.38
2022-10-10T20:18:06.373Z,11.38
2022-10-10T20:23:07.775Z,11.40
2022-10-10T20:28:09.804Z,11.19
2022-10-10T20:33:11.244Z,10.98
2022-10-10T20:38:12.724Z,11.11
2022-10-10T20:43:16.229Z,11.07
2022-10-10T20:48:17.550Z,10.92
2022-10-10T20:53:18.786Z,10.67
2022-10-10T20:58:20.182Z,10.77
2022-10-10T21:03:21.472Z,10.67
2022-10-10T21:08:22.702Z,10.62
2022-10-10T21:13:23.968Z,10.68
2022-10-10T21:18:25.194Z,10.38
2022-10-10T21:23:27.209Z,10.19
2022-10-10T21:28:28.511Z,10.17
2022-10-10T21:33:29.877Z,10.11
2022-10-10T21:38:31.242Z,9.96
2022-10-10T21:43:32.669Z,10.07
2022-10-10T21:48:34.068Z,9.88
2022-10-10T21:53:35.672Z,9.80
2022-10-10T21:58:38.886Z,9.92
2022-10-10T22:03:40.127Z,10.01
2022-10-10T22:08:42.158Z,9.62
2022-10-10T22:13:43.760Z,9.62
2022-10-10T22:18:45.136Z,9.67
2022-10-10T22:23:46.555Z,9.48
2022-10-10T22:28:48.027Z,9.38
2022-10-10T22:33:49.331Z,9.52
2022-10-10T22:38:50.563Z,9.40
2022-10-10T22:43:51.870Z,9.20
2022-10-10T22:48:53.108Z,9.18
2022-10-10T22:53:54.411Z,9.25
2022-10-10T22:58:55.701Z,9.05
2022-10-10T23:04:00.402Z,9.13
2022-10-10T23:09:02.022Z,8.93
2022-10-10T23:14:03.319Z,8.87
2022-10-10T23:19:04.548Z,8.79
2022-10-10T23:24:05.923Z,8.63
2022-10-10T23:29:08.022Z,8.91
2022-10-10T23:34:09.354Z,8.79
2022-10-10T23:39:10.640Z,8.53
2022-10-10T23:44:11.935Z,8.37
2022-10-10T23:49:13.174Z,8.45
2022-10-10T23:54:14.411Z,8.26
2022-10-10T23:59:15.770Z,8.11
